Huvudsida
METAR-TAF:

METAR-TAF

Flygplatser :

Lüderitz, Namibia

latitud: 26-41S, longitud: 015-15E, höjd: 130 m

Aktuellt väderrapport

Denna rapport gjordes för 1 timme och 8 minuter sedan, klockan 17:00 UTC
Temperatur 15°C
Fuktighet 82%
Tryck 1014 hPa

METAR: FYLZ 231700Z AUTO /////KT //// // ////// 15/12 Q1014

Tid: 20:08 (18:08 UTC)

Väderprognos

Denna rapport gjordes för 1 timme och 8 minuter sedan, klockan 17:00 UTC
Prognos gäller från 23 kl. 18 UTC till 24 kl. 03 UTC
Vind 12 kt från syd/sydost
Sikt 10 km eller mer
Inga moln under 1 500 m eller inga cumulonimbus

TAF: FYLZ 231700Z 2318/2403 16012KT CAVOK

Aktuella väderrapporter och prognoser från 4000 flygplatser (METAR- och TAF-rapporter).

De tillgängliga stationerna syns som gula och röda prickar på kartan.

För musen över prickarna för att se namnen på stationerna.

Klicka sedan för att få väderrapporter och prognoser.

För att ändra kartan: Klicka på de gröna knapparna med ett svart kors på för att zooma in; den gröna knappen med ett streck på för att zooma ut; eller på de gröna pilarna för angränsande kartor.


METAR-TAF: